sensor_id;sensor_type;location;lat;lon;timestamp;P1;P2;P0
46591;PMS6003;32314;48.748;9.656;2023-08-24T00:01:07;43.50;38.00;26.75
46591;PMS6003;32314;48.748;9.656;2023-08-24T00:03:54;31.25;30.00;23.50
46591;PMS6003;32314;48.748;9.656;2023-08-24T00:06:40;42.00;35.25;25.50
46591;PMS6003;32314;48.748;9.656;2023-08-24T00:09:26;31.50;30.00;22.75
46591;PMS6003;32314;48.748;9.656;2023-08-24T00:12:12;29.50;27.75;20.25
46591;PMS6003;32314;48.748;9.656;2023-08-24T00:14:57;24.50;24.50;20.25
46591;PMS6003;32314;48.748;9.656;2023-08-24T00:17:53;16.50;15.00;13.00
46591;PMS6003;32314;48.748;9.656;2023-08-24T00:21:26;20.00;20.00;17.25
46591;PMS6003;32314;48.748;9.656;2023-08-24T00:25:04;21.25;20.75;17.00
46591;PMS6003;32314;48.748;9.656;2023-08-24T00:28:21;26.00;26.00;19.00
46591;PMS6003;32314;48.748;9.656;2023-08-24T00:31:44;15.50;14.25;11.75
46591;PMS6003;32314;48.748;9.656;2023-08-24T00:35:11;17.00;17.00;13.50
46591;PMS6003;32314;48.748;9.656;2023-08-24T00:38:55;11.75;11.75;10.00
46591;PMS6003;32314;48.748;9.656;2023-08-24T00:49:31;14.75;12.00;10.00
46591;PMS6003;32314;48.748;9.656;2023-08-24T00:57:08;13.50;13.50;12.50
46591;PMS6003;32314;48.748;9.656;2023-08-24T01:01:16;21.25;21.25;17.25
46591;PMS6003;32314;48.748;9.656;2023-08-24T01:04:51;22.50;22.50;18.50
46591;PMS6003;32314;48.748;9.656;2023-08-24T01:19:16;16.00;14.00;10.50
46591;PMS6003;32314;48.748;9.656;2023-08-24T01:23:18;13.75;13.75;9.50
46591;PMS6003;32314;48.748;9.656;2023-08-24T01:34:42;12.00;11.00;9.00
46591;PMS6003;32314;48.748;9.656;2023-08-24T01:38:33;13.50;13.50;10.00
46591;PMS6003;32314;48.748;9.656;2023-08-24T01:42:25;6.75;6.75;4.00
46591;PMS6003;32314;48.748;9.656;2023-08-24T01:49:17;23.75;22.50;17.25
46591;PMS6003;32314;48.748;9.656;2023-08-24T01:53:05;15.50;15.50;12.00
46591;PMS6003;32314;48.748;9.656;2023-08-24T01:56:18;17.50;15.50;12.00
46591;PMS6003;32314;48.748;9.656;2023-08-24T02:10:58;12.00;12.00;10.00
46591;PMS6003;32314;48.748;9.656;2023-08-24T02:14:39;16.00;15.25;10.00
46591;PMS6003;32314;48.748;9.656;2023-08-24T02:18:16;15.50;13.00;10.00
46591;PMS6003;32314;48.748;9.656;2023-08-24T02:32:25;15.00;14.00;12.25
46591;PMS6003;32314;48.748;9.656;2023-08-24T02:39:30;17.75;17.75;15.25
46591;PMS6003;32314;48.748;9.656;2023-08-24T02:42:41;23.75;23.00;17.00
46591;PMS6003;32314;48.748;9.656;2023-08-24T02:49:55;15.75;13.50;10.50
46591;PMS6003;32314;48.748;9.656;2023-08-24T02:53:35;13.75;12.75;10.00
46591;PMS6003;32314;48.748;9.656;2023-08-24T02:56:49;13.00;13.00;10.00
46591;PMS6003;32314;48.748;9.656;2023-08-24T03:00:13;13.50;13.50;10.50
46591;PMS6003;32314;48.748;9.656;2023-08-24T03:03:29;12.25;9.75;9.25
46591;PMS6003;32314;48.748;9.656;2023-08-24T03:06:24;16.50;12.50;9.00
46591;PMS6003;32314;48.748;9.656;2023-08-24T03:17:26;17.50;15.00;11.50
46591;PMS6003;32314;48.748;9.656;2023-08-24T03:43:35;13.25;13.25;12.00
46591;PMS6003;32314;48.748;9.656;2023-08-24T03:47:12;17.25;12.75;9.75
46591;PMS6003;32314;48.748;9.656;2023-08-24T03:50:42;16.75;16.75;12.50
46591;PMS6003;32314;48.748;9.656;2023-08-24T03:54:11;15.50;15.50;12.50
46591;PMS6003;32314;48.748;9.656;2023-08-24T03:57:34;15.00;15.00;10.00
46591;PMS6003;32314;48.748;9.656;2023-08-24T04:00:38;15.50;13.00;11.00
46591;PMS6003;32314;48.748;9.656;2023-08-24T04:11:18;17.00;14.00;9.75
46591;PMS6003;32314;48.748;9.656;2023-08-24T04:14:41;15.75;12.25;9.00
46591;PMS6003;32314;48.748;9.656;2023-08-24T04:18:07;15.00;15.00;12.50
46591;PMS6003;32314;48.748;9.656;2023-08-24T04:21:53;14.50;14.00;11.50
46591;PMS6003;32314;48.748;9.656;2023-08-24T04:29:15;15.00;15.00;13.00
46591;PMS6003;32314;48.748;9.656;2023-08-24T04:32:33;12.75;10.50;7.50
46591;PMS6003;32314;48.748;9.656;2023-08-24T04:35:54;16.25;15.00;13.25
46591;PMS6003;32314;48.748;9.656;2023-08-24T05:20:59;12.75;12.50;10.50
46591;PMS6003;32314;48.748;9.656;2023-08-24T05:23:45;20.50;14.50;11.50
46591;PMS6003;32314;48.748;9.656;2023-08-24T05:26:31;21.00;21.00;15.50
46591;PMS6003;32314;48.748;9.656;2023-08-24T05:29:16;20.25;19.50;17.00
46591;PMS6003;32314;48.748;9.656;2023-08-24T05:32:02;24.00;22.75;19.75
46591;PMS6003;32314;48.748;9.656;2023-08-24T05:34:48;26.25;25.25;19.50
46591;PMS6003;32314;48.748;9.656;2023-08-24T05:37:34;25.00;23.25;17.50
46591;PMS6003;32314;48.748;9.656;2023-08-24T05:40:20;22.00;22.00;19.75
46591;PMS6003;32314;48.748;9.656;2023-08-24T05:43:06;26.25;24.00;20.00
46591;PMS6003;32314;48.748;9.656;2023-08-24T05:45:52;19.75;18.50;16.25
46591;PMS6003;32314;48.748;9.656;2023-08-24T05:48:38;21.50;21.50;18.00
46591;PMS6003;32314;48.748;9.656;2023-08-24T05:51:23;24.75;24.25;19.75
46591;PMS6003;32314;48.748;9.656;2023-08-24T05:54:09;23.50;23.50;19.25
46591;PMS6003;32314;48.748;9.656;2023-08-24T05:56:55;23.25;23.00;19.50
46591;PMS6003;32314;48.748;9.656;2023-08-24T05:59:45;22.75;22.75;18.00
46591;PMS6003;32314;48.748;9.656;2023-08-24T06:02:33;22.50;22.50;18.50
46591;PMS6003;32314;48.748;9.656;2023-08-24T06:05:19;27.50;25.75;19.00
46591;PMS6003;32314;48.748;9.656;2023-08-24T06:08:05;23.00;23.00;19.50
46591;PMS6003;32314;48.748;9.656;2023-08-24T06:10:51;23.25;23.25;18.25
46591;PMS6003;32314;48.748;9.656;2023-08-24T06:13:37;21.75;21.75;16.00
46591;PMS6003;32314;48.748;9.656;2023-08-24T06:19:42;19.00;19.00;16.50
46591;PMS6003;32314;48.748;9.656;2023-08-24T06:22:28;19.50;19.50;16.50
46591;PMS6003;32314;48.748;9.656;2023-08-24T06:26:06;22.00;22.00;18.25
46591;PMS6003;32314;48.748;9.656;2023-08-24T06:32:31;19.00;19.00;16.50
46591;PMS6003;32314;48.748;9.656;2023-08-24T06:35:34;23.00;19.75;15.75
46591;PMS6003;32314;48.748;9.656;2023-08-24T06:38:55;21.00;21.00;17.75
46591;PMS6003;32314;48.748;9.656;2023-08-24T06:41:41;21.00;20.25;17.75
46591;PMS6003;32314;48.748;9.656;2023-08-24T06:44:28;20.25;20.25;17.00
46591;PMS6003;32314;48.748;9.656;2023-08-24T06:47:17;22.50;21.50;17.75
46591;PMS6003;32314;48.748;9.656;2023-08-24T06:50:10;20.50;20.25;16.25
46591;PMS6003;32314;48.748;9.656;2023-08-24T06:52:57;24.75;23.50;19.75
46591;PMS6003;32314;48.748;9.656;2023-08-24T06:55:46;22.50;21.00;18.25
46591;PMS6003;32314;48.748;9.656;2023-08-24T06:58:32;18.00;18.00;14.25
46591;PMS6003;32314;48.748;9.656;2023-08-24T07:01:18;15.25;15.25;13.75
46591;PMS6003;32314;48.748;9.656;2023-08-24T07:04:04;21.75;19.25;16.25
46591;PMS6003;32314;48.748;9.656;2023-08-24T07:06:50;15.75;15.75;13.50
46591;PMS6003;32314;48.748;9.656;2023-08-24T07:09:36;17.50;17.50;15.25
46591;PMS6003;32314;48.748;9.656;2023-08-24T07:12:25;29.25;29.25;23.50
46591;PMS6003;32314;48.748;9.656;2023-08-24T07:15:21;19.50;19.50;16.25
46591;PMS6003;32314;48.748;9.656;2023-08-24T07:18:11;15.25;15.25;14.25
46591;PMS6003;32314;48.748;9.656;2023-08-24T07:20:57;19.00;19.00;16.00
46591;PMS6003;32314;48.748;9.656;2023-08-24T07:23:49;21.00;19.50;16.25
46591;PMS6003;32314;48.748;9.656;2023-08-24T07:26:39;17.75;17.00;14.75
46591;PMS6003;32314;48.748;9.656;2023-08-24T07:29:29;17.50;17.50;13.50
46591;PMS6003;32314;48.748;9.656;2023-08-24T07:32:15;16.50;16.50;15.00
46591;PMS6003;32314;48.748;9.656;2023-08-24T07:35:01;16.25;16.25;13.25
46591;PMS6003;32314;48.748;9.656;2023-08-24T07:37:47;22.00;20.75;17.00
46591;PMS6003;32314;48.748;9.656;2023-08-24T07:40:33;19.50;18.25;15.25
46591;PMS6003;32314;48.748;9.656;2023-08-24T07:43:22;19.00;19.00;16.00
46591;PMS6003;32314;48.748;9.656;2023-08-24T07:46:08;20.25;20.25;17.00
46591;PMS6003;32314;48.748;9.656;2023-08-24T07:48:54;19.75;19.75;16.25
46591;PMS6003;32314;48.748;9.656;2023-08-24T07:51:41;20.50;19.25;17.75
46591;PMS6003;32314;48.748;9.656;2023-08-24T07:54:30;15.50;15.50;13.25
46591;PMS6003;32314;48.748;9.656;2023-08-24T07:57:16;15.00;15.00;14.00
46591;PMS6003;32314;48.748;9.656;2023-08-24T08:00:02;17.00;17.00;14.00
46591;PMS6003;32314;48.748;9.656;2023-08-24T08:02:58;15.50;15.50;13.75
46591;PMS6003;32314;48.748;9.656;2023-08-24T08:05:44;15.75;14.25;13.00
46591;PMS6003;32314;48.748;9.656;2023-08-24T08:08:31;17.33;16.33;14.33
46591;PMS6003;32314;48.748;9.656;2023-08-24T08:11:16;15.33;15.00;13.00
46591;PMS6003;32314;48.748;9.656;2023-08-24T08:14:02;14.67;14.67;13.67
46591;PMS6003;32314;48.748;9.656;2023-08-24T08:16:49;15.33;14.00;12.00
46591;PMS6003;32314;48.748;9.656;2023-08-24T08:19:34;14.00;14.00;13.00
46591;PMS6003;32314;48.748;9.656;2023-08-24T08:22:23;13.67;13.67;12.00
46591;PMS6003;32314;48.748;9.656;2023-08-24T08:25:10;16.00;15.00;13.67
46591;PMS6003;32314;48.748;9.656;2023-08-24T08:27:57;16.00;16.00;14.00
46591;PMS6003;32314;48.748;9.656;2023-08-24T08:30:43;17.33;13.33;11.67
46591;PMS6003;32314;48.748;9.656;2023-08-24T08:33:29;13.25;13.25;12.00
46591;PMS6003;32314;48.748;9.656;2023-08-24T08:36:15;15.25;14.75;13.00
46591;PMS6003;32314;48.748;9.656;2023-08-24T08:39:01;16.33;16.00;13.67
46591;PMS6003;32314;48.748;9.656;2023-08-24T08:41:49;14.00;14.00;12.00
46591;PMS6003;32314;48.748;9.656;2023-08-24T08:44:35;14.33;14.33;13.00
46591;PMS6003;32314;48.748;9.656;2023-08-24T08:47:21;15.67;15.00;14.00
46591;PMS6003;32314;48.748;9.656;2023-08-24T08:50:08;14.25;14.25;13.00
46591;PMS6003;32314;48.748;9.656;2023-08-24T08:52:55;15.00;15.00;13.00
46591;PMS6003;32314;48.748;9.656;2023-08-24T08:55:41;17.75;16.50;14.25
46591;PMS6003;32314;48.748;9.656;2023-08-24T08:58:27;16.50;16.25;13.75
46591;PMS6003;32314;48.748;9.656;2023-08-24T09:01:14;16.75;14.75;13.25
46591;PMS6003;32314;48.748;9.656;2023-08-24T09:04:00;14.00;14.00;13.00
46591;PMS6003;32314;48.748;9.656;2023-08-24T09:06:46;13.75;13.75;12.00
46591;PMS6003;32314;48.748;9.656;2023-08-24T09:09:31;15.00;15.00;14.00
46591;PMS6003;32314;48.748;9.656;2023-08-24T09:12:18;16.00;16.00;14.00
46591;PMS6003;32314;48.748;9.656;2023-08-24T09:15:04;18.50;16.50;14.25
46591;PMS6003;32314;48.748;9.656;2023-08-24T09:17:51;13.00;12.50;12.00
46591;PMS6003;32314;48.748;9.656;2023-08-24T09:20:38;14.00;14.00;12.00
46591;PMS6003;32314;48.748;9.656;2023-08-24T09:23:24;18.50;16.00;14.50
46591;PMS6003;32314;48.748;9.656;2023-08-24T09:26:12;14.00;14.00;11.75
46591;PMS6003;32314;48.748;9.656;2023-08-24T09:29:10;15.00;14.25;12.50
46591;PMS6003;32314;48.748;9.656;2023-08-24T09:31:58;15.25;15.25;13.75
46591;PMS6003;32314;48.748;9.656;2023-08-24T09:34:44;15.00;15.00;13.25
46591;PMS6003;32314;48.748;9.656;2023-08-24T09:37:36;16.75;16.75;14.25
46591;PMS6003;32314;48.748;9.656;2023-08-24T09:40:27;16.50;15.75;14.00
46591;PMS6003;32314;48.748;9.656;2023-08-24T09:43:13;18.00;18.00;15.00
46591;PMS6003;32314;48.748;9.656;2023-08-24T09:46:05;15.25;15.25;14.00
46591;PMS6003;32314;48.748;9.656;2023-08-24T09:48:58;15.75;15.75;13.75
46591;PMS6003;32314;48.748;9.656;2023-08-24T09:51:46;16.75;16.75;15.00
46591;PMS6003;32314;48.748;9.656;2023-08-24T09:54:32;17.50;15.75;14.00
46591;PMS6003;32314;48.748;9.656;2023-08-24T09:57:24;19.25;16.25;14.00
46591;PMS6003;32314;48.748;9.656;2023-08-24T10:00:10;17.25;15.25;14.00
46591;PMS6003;32314;48.748;9.656;2023-08-24T10:02:59;16.00;16.00;14.25
46591;PMS6003;32314;48.748;9.656;2023-08-24T10:05:50;17.00;16.00;13.75
46591;PMS6003;32314;48.748;9.656;2023-08-24T10:08:42;18.00;16.75;14.75
46591;PMS6003;32314;48.748;9.656;2023-08-24T10:11:53;15.50;15.50;13.50
46591;PMS6003;32314;48.748;9.656;2023-08-24T10:15:01;14.75;14.75;13.50
46591;PMS6003;32314;48.748;9.656;2023-08-24T10:17:52;17.25;17.25;14.50
46591;PMS6003;32314;48.748;9.656;2023-08-24T10:20:39;15.25;15.25;14.25
46591;PMS6003;32314;48.748;9.656;2023-08-24T10:23:28;16.00;16.00;14.25
46591;PMS6003;32314;48.748;9.656;2023-08-24T10:26:14;15.00;15.00;13.75
46591;PMS6003;32314;48.748;9.656;2023-08-24T10:29:02;17.50;17.50;15.25
46591;PMS6003;32314;48.748;9.656;2023-08-24T10:31:48;19.25;16.50;14.00
46591;PMS6003;32314;48.748;9.656;2023-08-24T10:34:35;17.00;17.00;14.50
46591;PMS6003;32314;48.748;9.656;2023-08-24T10:37:25;18.50;18.50;16.00
46591;PMS6003;32314;48.748;9.656;2023-08-24T10:40:12;17.00;17.00;14.75
46591;PMS6003;32314;48.748;9.656;2023-08-24T10:42:58;15.25;15.25;13.00
46591;PMS6003;32314;48.748;9.656;2023-08-24T10:46:01;17.25;17.25;14.25
46591;PMS6003;32314;48.748;9.656;2023-08-24T10:51:42;17.75;17.75;15.75
46591;PMS6003;32314;48.748;9.656;2023-08-24T10:54:31;13.50;13.50;11.50
46591;PMS6003;32314;48.748;9.656;2023-08-24T10:57:27;19.50;17.50;15.25
46591;PMS6003;32314;48.748;9.656;2023-08-24T11:00:21;15.50;15.50;13.75
46591;PMS6003;32314;48.748;9.656;2023-08-24T11:03:08;17.00;16.75;14.00
46591;PMS6003;32314;48.748;9.656;2023-08-24T11:05:54;15.75;15.75;14.75
46591;PMS6003;32314;48.748;9.656;2023-08-24T11:08:48;14.00;14.00;12.00
46591;PMS6003;32314;48.748;9.656;2023-08-24T11:11:37;18.00;17.00;14.33
46591;PMS6003;32314;48.748;9.656;2023-08-24T11:14:23;18.25;18.00;15.75
46591;PMS6003;32314;48.748;9.656;2023-08-24T11:17:19;15.75;15.75;14.00
46591;PMS6003;32314;48.748;9.656;2023-08-24T11:20:06;16.00;16.00;14.25
46591;PMS6003;32314;48.748;9.656;2023-08-24T11:22:54;15.00;15.00;13.75
46591;PMS6003;32314;48.748;9.656;2023-08-24T11:25:41;15.50;15.50;12.75
46591;PMS6003;32314;48.748;9.656;2023-08-24T11:28:28;12.50;12.50;11.50
46591;PMS6003;32314;48.748;9.656;2023-08-24T11:31:14;13.00;13.00;11.75
46591;PMS6003;32314;48.748;9.656;2023-08-24T11:34:00;15.00;15.00;13.00
46591;PMS6003;32314;48.748;9.656;2023-08-24T11:36:46;13.75;13.75;12.75
46591;PMS6003;32314;48.748;9.656;2023-08-24T11:39:32;14.00;14.00;12.00
46591;PMS6003;32314;48.748;9.656;2023-08-24T11:42:18;14.50;14.50;12.00
46591;PMS6003;32314;48.748;9.656;2023-08-24T11:45:04;12.25;12.25;11.00
46591;PMS6003;32314;48.748;9.656;2023-08-24T11:47:59;11.50;11.50;11.00
46591;PMS6003;32314;48.748;9.656;2023-08-24T11:50:50;14.75;14.75;14.00
46591;PMS6003;32314;48.748;9.656;2023-08-24T11:53:37;13.25;13.25;11.25
46591;PMS6003;32314;48.748;9.656;2023-08-24T11:56:27;12.60;12.60;10.60
46591;PMS6003;32314;48.748;9.656;2023-08-24T11:59:13;11.75;11.75;11.00
46591;PMS6003;32314;48.748;9.656;2023-08-24T12:02:00;12.00;11.00;9.40
46591;PMS6003;32314;48.748;9.656;2023-08-24T12:04:45;9.20;9.20;8.00
46591;PMS6003;32314;48.748;9.656;2023-08-24T12:07:33;11.60;11.60;10.00
46591;PMS6003;32314;48.748;9.656;2023-08-24T12:10:20;11.25;11.25;10.00
46591;PMS6003;32314;48.748;9.656;2023-08-24T12:13:06;13.00;13.00;10.80
46591;PMS6003;32314;48.748;9.656;2023-08-24T12:15:52;13.00;12.50;9.75
46591;PMS6003;32314;48.748;9.656;2023-08-24T12:18:53;13.40;13.40;10.80
46591;PMS6003;32314;48.748;9.656;2023-08-24T12:21:43;9.80;9.80;8.40
46591;PMS6003;32314;48.748;9.656;2023-08-24T12:24:29;10.80;10.80;10.00
46591;PMS6003;32314;48.748;9.656;2023-08-24T12:27:27;10.80;10.80;10.00
46591;PMS6003;32314;48.748;9.656;2023-08-24T12:30:13;11.20;11.00;9.60
46591;PMS6003;32314;48.748;9.656;2023-08-24T12:32:59;10.60;10.60;9.80
46591;PMS6003;32314;48.748;9.656;2023-08-24T12:35:45;13.60;12.80;11.60
46591;PMS6003;32314;48.748;9.656;2023-08-24T12:38:31;10.60;9.20;8.40
46591;PMS6003;32314;48.748;9.656;2023-08-24T12:41:17;11.40;11.40;9.80
46591;PMS6003;32314;48.748;9.656;2023-08-24T12:44:03;11.60;9.80;9.60
46591;PMS6003;32314;48.748;9.656;2023-08-24T12:46:50;11.40;11.40;10.20
46591;PMS6003;32314;48.748;9.656;2023-08-24T12:49:36;11.80;11.80;10.60
46591;PMS6003;32314;48.748;9.656;2023-08-24T12:52:22;12.40;12.40;10.00
46591;PMS6003;32314;48.748;9.656;2023-08-24T12:55:09;14.80;13.40;12.00
46591;PMS6003;32314;48.748;9.656;2023-08-24T12:57:54;13.20;13.20;11.60
46591;PMS6003;32314;48.748;9.656;2023-08-24T13:00:40;13.40;11.60;10.20
46591;PMS6003;32314;48.748;9.656;2023-08-24T13:03:26;10.40;10.40;9.60
46591;PMS6003;32314;48.748;9.656;2023-08-24T13:06:12;11.60;11.60;10.20
46591;PMS6003;32314;48.748;9.656;2023-08-24T13:08:58;11.20;11.20;10.00
46591;PMS6003;32314;48.748;9.656;2023-08-24T13:11:43;13.00;13.00;10.60
46591;PMS6003;32314;48.748;9.656;2023-08-24T13:14:29;12.20;12.20;10.60
46591;PMS6003;32314;48.748;9.656;2023-08-24T13:17:15;12.00;12.00;11.20
46591;PMS6003;32314;48.748;9.656;2023-08-24T13:20:01;14.80;13.40;12.40
46591;PMS6003;32314;48.748;9.656;2023-08-24T13:22:48;12.80;11.40;10.60
46591;PMS6003;32314;48.748;9.656;2023-08-24T13:25:34;12.00;12.00;10.80
46591;PMS6003;32314;48.748;9.656;2023-08-24T13:28:19;12.00;12.00;11.20
46591;PMS6003;32314;48.748;9.656;2023-08-24T13:31:06;14.60;14.60;12.80
46591;PMS6003;32314;48.748;9.656;2023-08-24T13:33:53;15.00;14.00;12.20
46591;PMS6003;32314;48.748;9.656;2023-08-24T13:36:39;13.20;13.20;11.80
46591;PMS6003;32314;48.748;9.656;2023-08-24T13:39:28;13.00;13.00;11.50
46591;PMS6003;32314;48.748;9.656;2023-08-24T13:42:14;12.75;12.75;11.25
46591;PMS6003;32314;48.748;9.656;2023-08-24T13:45:01;15.00;15.00;13.25
46591;PMS6003;32314;48.748;9.656;2023-08-24T13:51:05;11.25;11.25;10.00
46591;PMS6003;32314;48.748;9.656;2023-08-24T13:53:51;14.50;14.50;12.25
46591;PMS6003;32314;48.748;9.656;2023-08-24T13:56:36;12.40;12.40;11.00
46591;PMS6003;32314;48.748;9.656;2023-08-24T13:59:22;12.40;12.40;11.40
46591;PMS6003;32314;48.748;9.656;2023-08-24T14:02:08;15.40;13.80;10.40
46591;PMS6003;32314;48.748;9.656;2023-08-24T14:04:54;12.60;12.60;11.60
46591;PMS6003;32314;48.748;9.656;2023-08-24T14:07:40;13.40;13.40;12.00
46591;PMS6003;32314;48.748;9.656;2023-08-24T14:10:26;12.20;12.20;11.40
46591;PMS6003;32314;48.748;9.656;2023-08-24T14:13:12;12.80;12.80;10.80
46591;PMS6003;32314;48.748;9.656;2023-08-24T14:15:57;12.20;12.20;10.20
46591;PMS6003;32314;48.748;9.656;2023-08-24T14:18:44;14.40;13.20;11.00
46591;PMS6003;32314;48.748;9.656;2023-08-24T14:21:31;12.60;12.60;10.20
46591;PMS6003;32314;48.748;9.656;2023-08-24T14:24:17;11.25;11.00;9.00
46591;PMS6003;32314;48.748;9.656;2023-08-24T14:27:03;14.50;13.25;11.00
46591;PMS6003;32314;48.748;9.656;2023-08-24T14:29:51;12.75;11.25;10.25
46591;PMS6003;32314;48.748;9.656;2023-08-24T14:32:37;13.60;12.60;11.20
46591;PMS6003;32314;48.748;9.656;2023-08-24T14:35:23;16.25;13.50;12.50
46591;PMS6003;32314;48.748;9.656;2023-08-24T14:38:09;12.75;12.75;11.50
46591;PMS6003;32314;48.748;9.656;2023-08-24T14:40:55;8.80;8.80;7.60
46591;PMS6003;32314;48.748;9.656;2023-08-24T14:43:46;13.25;13.25;12.00
46591;PMS6003;32314;48.748;9.656;2023-08-24T14:46:38;12.00;12.00;10.60
46591;PMS6003;32314;48.748;9.656;2023-08-24T14:49:27;14.50;14.00;12.75
46591;PMS6003;32314;48.748;9.656;2023-08-24T14:52:14;10.00;10.00;8.80
46591;PMS6003;32314;48.748;9.656;2023-08-24T14:54:59;12.50;12.50;10.50
46591;PMS6003;32314;48.748;9.656;2023-08-24T14:57:45;10.50;9.00;8.00
46591;PMS6003;32314;48.748;9.656;2023-08-24T15:00:31;12.00;12.00;11.00
46591;PMS6003;32314;48.748;9.656;2023-08-24T15:03:18;13.25;12.50;10.00
46591;PMS6003;32314;48.748;9.656;2023-08-24T15:06:04;11.00;11.00;10.50
46591;PMS6003;32314;48.748;9.656;2023-08-24T15:08:51;9.50;7.75;6.00
46591;PMS6003;32314;48.748;9.656;2023-08-24T15:11:37;13.75;11.25;10.75
46591;PMS6003;32314;48.748;9.656;2023-08-24T15:14:22;13.25;10.25;10.00
46591;PMS6003;32314;48.748;9.656;2023-08-24T15:17:12;13.25;12.50;10.00
46591;PMS6003;32314;48.748;9.656;2023-08-24T15:20:00;15.75;15.50;12.25
46591;PMS6003;32314;48.748;9.656;2023-08-24T15:22:46;14.75;14.75;14.00
46591;PMS6003;32314;48.748;9.656;2023-08-24T15:25:32;16.50;16.50;13.50
46591;PMS6003;32314;48.748;9.656;2023-08-24T15:28:17;11.50;11.50;10.75
46591;PMS6003;32314;48.748;9.656;2023-08-24T15:31:03;12.50;12.00;10.75
46591;PMS6003;32314;48.748;9.656;2023-08-24T15:33:50;12.75;12.75;10.25
46591;PMS6003;32314;48.748;9.656;2023-08-24T15:36:36;14.50;12.75;11.75
46591;PMS6003;32314;48.748;9.656;2023-08-24T15:39:23;11.00;11.00;10.00
46591;PMS6003;32314;48.748;9.656;2023-08-24T15:42:10;9.75;9.75;8.00
46591;PMS6003;32314;48.748;9.656;2023-08-24T15:44:55;11.00;8.50;7.25
46591;PMS6003;32314;48.748;9.656;2023-08-24T15:47:41;7.50;6.25;5.75
46591;PMS6003;32314;48.748;9.656;2023-08-24T15:50:27;4.50;3.50;3.00
46591;PMS6003;32314;48.748;9.656;2023-08-24T15:53:13;4.00;4.00;3.25
46591;PMS6003;32314;48.748;9.656;2023-08-24T15:55:59;4.00;4.00;3.25
46591;PMS6003;32314;48.748;9.656;2023-08-24T15:58:45;2.00;2.00;2.00
46591;PMS6003;32314;48.748;9.656;2023-08-24T16:01:31;4.25;4.25;3.25
46591;PMS6003;32314;48.748;9.656;2023-08-24T16:04:17;2.00;2.00;2.00
46591;PMS6003;32314;48.748;9.656;2023-08-24T16:07:03;4.00;4.00;3.75
46591;PMS6003;32314;48.748;9.656;2023-08-24T16:09:49;2.75;2.75;2.50
46591;PMS6003;32314;48.748;9.656;2023-08-24T16:12:35;2.25;2.25;2.00
46591;PMS6003;32314;48.748;9.656;2023-08-24T16:15:21;2.00;2.00;2.00
46591;PMS6003;32314;48.748;9.656;2023-08-24T16:18:07;3.00;3.00;2.50
46591;PMS6003;32314;48.748;9.656;2023-08-24T16:20:53;0.75;0.75;0.75
46591;PMS6003;32314;48.748;9.656;2023-08-24T16:23:39;1.00;1.00;1.00
46591;PMS6003;32314;48.748;9.656;2023-08-24T16:26:25;1.00;1.00;1.00
46591;PMS6003;32314;48.748;9.656;2023-08-24T16:29:11;1.25;0.25;0.00
46591;PMS6003;32314;48.748;9.656;2023-08-24T16:32:00;3.00;2.00;1.25
46591;PMS6003;32314;48.748;9.656;2023-08-24T16:34:46;2.00;1.75;0.75
46591;PMS6003;32314;48.748;9.656;2023-08-24T16:37:32;0.75;0.75;0.75
46591;PMS6003;32314;48.748;9.656;2023-08-24T16:40:18;2.25;2.25;2.00
46591;PMS6003;32314;48.748;9.656;2023-08-24T16:43:04;3.25;1.50;1.25
46591;PMS6003;32314;48.748;9.656;2023-08-24T16:45:50;1.00;1.00;1.00
46591;PMS6003;32314;48.748;9.656;2023-08-24T16:48:36;1.75;1.75;1.75
46591;PMS6003;32314;48.748;9.656;2023-08-24T16:51:22;0.25;0.25;0.25
46591;PMS6003;32314;48.748;9.656;2023-08-24T16:54:08;0.33;0.33;0.33
46591;PMS6003;32314;48.748;9.656;2023-08-24T16:56:53;1.33;1.33;1.33
46591;PMS6003;32314;48.748;9.656;2023-08-24T16:59:39;1.25;1.25;1.25
46591;PMS6003;32314;48.748;9.656;2023-08-24T17:02:25;2.25;2.25;1.75
46591;PMS6003;32314;48.748;9.656;2023-08-24T17:05:11;2.00;2.00;2.00
46591;PMS6003;32314;48.748;9.656;2023-08-24T17:10:49;0.25;0.25;0.25
46591;PMS6003;32314;48.748;9.656;2023-08-24T17:13:35;1.25;1.25;1.25
46591;PMS6003;32314;48.748;9.656;2023-08-24T17:16:21;2.00;2.00;1.25
46591;PMS6003;32314;48.748;9.656;2023-08-24T17:19:07;1.00;1.00;1.00
46591;PMS6003;32314;48.748;9.656;2023-08-24T17:21:53;2.00;0.75;0.75
46591;PMS6003;32314;48.748;9.656;2023-08-24T17:24:38;1.00;1.00;0.50
46591;PMS6003;32314;48.748;9.656;2023-08-24T17:27:24;0.33;0.33;0.33
46591;PMS6003;32314;48.748;9.656;2023-08-24T17:30:10;0.00;0.00;0.00
46591;PMS6003;32314;48.748;9.656;2023-08-24T17:32:57;1.00;1.00;1.00
46591;PMS6003;32314;48.748;9.656;2023-08-24T17:35:42;0.25;0.25;0.25
46591;PMS6003;32314;48.748;9.656;2023-08-24T17:38:31;2.00;1.25;1.25
46591;PMS6003;32314;48.748;9.656;2023-08-24T17:41:17;2.25;2.25;2.25
46591;PMS6003;32314;48.748;9.656;2023-08-24T17:44:12;4.00;2.50;1.75
46591;PMS6003;32314;48.748;9.656;2023-08-24T17:46:58;1.75;1.75;1.50
46591;PMS6003;32314;48.748;9.656;2023-08-24T17:49:44;4.00;2.00;2.00
46591;PMS6003;32314;48.748;9.656;2023-08-24T17:52:29;2.00;2.00;1.75
46591;PMS6003;32314;48.748;9.656;2023-08-24T17:55:17;1.00;1.00;1.00
46591;PMS6003;32314;48.748;9.656;2023-08-24T17:58:12;2.00;2.00;1.33
46591;PMS6003;32314;48.748;9.656;2023-08-24T18:00:58;4.67;2.33;2.33
46591;PMS6003;32314;48.748;9.656;2023-08-24T18:03:44;3.67;3.67;3.33
46591;PMS6003;32314;48.748;9.656;2023-08-24T18:06:30;3.00;1.33;1.00
46591;PMS6003;32314;48.748;9.656;2023-08-24T18:09:16;2.67;2.67;2.33
46591;PMS6003;32314;48.748;9.656;2023-08-24T18:12:02;3.00;3.00;2.67
46591;PMS6003;32314;48.748;9.656;2023-08-24T18:14:50;2.00;2.00;1.67
46591;PMS6003;32314;48.748;9.656;2023-08-24T18:17:36;2.67;2.67;2.00
46591;PMS6003;32314;48.748;9.656;2023-08-24T18:20:37;3.00;3.00;3.00
46591;PMS6003;32314;48.748;9.656;2023-08-24T18:35:54;2.67;2.67;2.00
46591;PMS6003;32314;48.748;9.656;2023-08-24T18:38:40;3.00;3.00;3.00
46591;PMS6003;32314;48.748;9.656;2023-08-24T18:41:28;2.00;2.00;2.00
46591;PMS6003;32314;48.748;9.656;2023-08-24T18:44:16;4.00;2.00;2.00
46591;PMS6003;32314;48.748;9.656;2023-08-24T18:47:04;2.67;2.67;2.00
46591;PMS6003;32314;48.748;9.656;2023-08-24T18:49:53;4.00;2.67;2.67
46591;PMS6003;32314;48.748;9.656;2023-08-24T18:52:39;4.67;3.00;2.67
46591;PMS6003;32314;48.748;9.656;2023-08-24T18:55:25;0.00;0.00;0.00
46591;PMS6003;32314;48.748;9.656;2023-08-24T18:58:11;4.00;4.00;3.00
46591;PMS6003;32314;48.748;9.656;2023-08-24T19:01:01;4.33;3.00;3.00
46591;PMS6003;32314;48.748;9.656;2023-08-24T19:03:48;3.00;3.00;3.00
46591;PMS6003;32314;48.748;9.656;2023-08-24T19:06:34;6.00;4.00;4.00
46591;PMS6003;32314;48.748;9.656;2023-08-24T19:09:20;4.67;4.67;4.67
46591;PMS6003;32314;48.748;9.656;2023-08-24T19:12:06;5.00;5.00;4.25
46591;PMS6003;32314;48.748;9.656;2023-08-24T19:14:52;5.25;5.25;5.00